sensor_id;sensor_type;location;lat;lon;timestamp;P1;durP1;ratioP1;P2;durP2;ratioP2
22812;SDS011;11573;51.334;3.244;2022-09-25T00:01:08;10.00;;;2.28;;
22812;SDS011;11573;51.334;3.244;2022-09-25T00:03:36;7.97;;;2.60;;
22812;SDS011;11573;51.334;3.244;2022-09-25T00:08:35;16.48;;;2.70;;
22812;SDS011;11573;51.334;3.244;2022-09-25T00:11:06;12.98;;;2.15;;
22812;SDS011;11573;51.334;3.244;2022-09-25T00:16:07;9.30;;;1.70;;
22812;SDS011;11573;51.334;3.244;2022-09-25T00:18:36;9.57;;;2.13;;
22812;SDS011;11573;51.334;3.244;2022-09-25T00:21:21;13.48;;;2.58;;
22812;SDS011;11573;51.334;3.244;2022-09-25T00:23:48;9.40;;;2.50;;
22812;SDS011;11573;51.334;3.244;2022-09-25T00:26:16;11.82;;;1.90;;
22812;SDS011;11573;51.334;3.244;2022-09-25T00:28:43;9.05;;;2.25;;
22812;SDS011;11573;51.334;3.244;2022-09-25T00:31:10;9.77;;;2.40;;
22812;SDS011;11573;51.334;3.244;2022-09-25T00:33:43;12.65;;;2.53;;
22812;SDS011;11573;51.334;3.244;2022-09-25T00:36:10;12.40;;;2.38;;
22812;SDS011;11573;51.334;3.244;2022-09-25T00:38:37;16.30;;;2.72;;
22812;SDS011;11573;51.334;3.244;2022-09-25T00:41:05;9.27;;;2.28;;
22812;SDS011;11573;51.334;3.244;2022-09-25T00:46:10;11.00;;;1.98;;
22812;SDS011;11573;51.334;3.244;2022-09-25T00:48:58;7.95;;;1.73;;
22812;SDS011;11573;51.334;3.244;2022-09-25T00:51:41;10.00;;;2.20;;
22812;SDS011;11573;51.334;3.244;2022-09-25T00:54:21;7.75;;;1.73;;
22812;SDS011;11573;51.334;3.244;2022-09-25T00:56:52;10.90;;;2.78;;
22812;SDS011;11573;51.334;3.244;2022-09-25T00:59:22;7.18;;;1.80;;
22812;SDS011;11573;51.334;3.244;2022-09-25T01:01:53;7.75;;;1.83;;
22812;SDS011;11573;51.334;3.244;2022-09-25T01:04:20;9.70;;;1.92;;
22812;SDS011;11573;51.334;3.244;2022-09-25T01:06:51;7.97;;;2.47;;
22812;SDS011;11573;51.334;3.244;2022-09-25T01:09:19;8.05;;;2.05;;
22812;SDS011;11573;51.334;3.244;2022-09-25T01:11:47;11.07;;;1.80;;
22812;SDS011;11573;51.334;3.244;2022-09-25T01:14:13;10.73;;;2.08;;
22812;SDS011;11573;51.334;3.244;2022-09-25T01:16:48;8.25;;;1.98;;
22812;SDS011;11573;51.334;3.244;2022-09-25T01:19:34;8.25;;;1.73;;
22812;SDS011;11573;51.334;3.244;2022-09-25T01:27:37;8.02;;;1.77;;
22812;SDS011;11573;51.334;3.244;2022-09-25T01:30:11;6.78;;;1.80;;
22812;SDS011;11573;51.334;3.244;2022-09-25T01:35:47;9.88;;;2.05;;
22812;SDS011;11573;51.334;3.244;2022-09-25T01:38:34;5.82;;;1.70;;
22812;SDS011;11573;51.334;3.244;2022-09-25T01:46:54;7.00;;;2.25;;
22812;SDS011;11573;51.334;3.244;2022-09-25T01:49:29;9.80;;;2.00;;
22812;SDS011;11573;51.334;3.244;2022-09-25T01:52:05;9.30;;;2.30;;
22812;SDS011;11573;51.334;3.244;2022-09-25T01:54:37;6.85;;;1.67;;
22812;SDS011;11573;51.334;3.244;2022-09-25T02:02:43;6.25;;;1.52;;
22812;SDS011;11573;51.334;3.244;2022-09-25T02:05:16;5.35;;;1.63;;
22812;SDS011;11573;51.334;3.244;2022-09-25T02:07:48;7.18;;;2.78;;
22812;SDS011;11573;51.334;3.244;2022-09-25T02:10:19;8.45;;;2.42;;
22812;SDS011;11573;51.334;3.244;2022-09-25T02:12:50;7.57;;;2.10;;
22812;SDS011;11573;51.334;3.244;2022-09-25T02:15:24;9.77;;;2.40;;
22812;SDS011;11573;51.334;3.244;2022-09-25T02:17:58;5.95;;;1.80;;
22812;SDS011;11573;51.334;3.244;2022-09-25T02:20:48;6.80;;;1.55;;
22812;SDS011;11573;51.334;3.244;2022-09-25T02:23:46;9.20;;;2.33;;
22812;SDS011;11573;51.334;3.244;2022-09-25T02:26:25;6.40;;;1.75;;
22812;SDS011;11573;51.334;3.244;2022-09-25T02:28:57;10.60;;;2.17;;
22812;SDS011;11573;51.334;3.244;2022-09-25T02:31:27;9.52;;;1.85;;
22812;SDS011;11573;51.334;3.244;2022-09-25T02:34:01;10.70;;;2.03;;
22812;SDS011;11573;51.334;3.244;2022-09-25T02:36:29;9.63;;;2.20;;
22812;SDS011;11573;51.334;3.244;2022-09-25T02:38:57;6.65;;;1.58;;
22812;SDS011;11573;51.334;3.244;2022-09-25T02:49:49;4.97;;;1.77;;
22812;SDS011;11573;51.334;3.244;2022-09-25T02:55:16;7.20;;;1.90;;
22812;SDS011;11573;51.334;3.244;2022-09-25T03:00:24;8.68;;;1.73;;
22812;SDS011;11573;51.334;3.244;2022-09-25T03:02:52;7.80;;;1.70;;
22812;SDS011;11573;51.334;3.244;2022-09-25T03:05:22;3.78;;;1.75;;
22812;SDS011;11573;51.334;3.244;2022-09-25T03:07:51;6.00;;;2.00;;
22812;SDS011;11573;51.334;3.244;2022-09-25T03:10:38;9.70;;;2.17;;
22812;SDS011;11573;51.334;3.244;2022-09-25T03:13:12;6.00;;;2.17;;
22812;SDS011;11573;51.334;3.244;2022-09-25T03:15:40;7.72;;;1.90;;
22812;SDS011;11573;51.334;3.244;2022-09-25T03:18:11;7.63;;;2.42;;
22812;SDS011;11573;51.334;3.244;2022-09-25T03:20:39;5.32;;;1.85;;
22812;SDS011;11573;51.334;3.244;2022-09-25T03:23:06;5.15;;;2.05;;
22812;SDS011;11573;51.334;3.244;2022-09-25T03:25:33;11.50;;;2.50;;
22812;SDS011;11573;51.334;3.244;2022-09-25T03:28:00;7.57;;;2.30;;
22812;SDS011;11573;51.334;3.244;2022-09-25T03:30:27;4.65;;;1.98;;
22812;SDS011;11573;51.334;3.244;2022-09-25T03:32:54;12.93;;;2.80;;
22812;SDS011;11573;51.334;3.244;2022-09-25T03:35:21;8.05;;;2.33;;
22812;SDS011;11573;51.334;3.244;2022-09-25T03:37:48;11.00;;;2.42;;
22812;SDS011;11573;51.334;3.244;2022-09-25T03:40:16;9.15;;;2.70;;
22812;SDS011;11573;51.334;3.244;2022-09-25T03:42:42;14.80;;;3.10;;
22812;SDS011;11573;51.334;3.244;2022-09-25T03:45:09;8.27;;;2.22;;
22812;SDS011;11573;51.334;3.244;2022-09-25T03:47:36;9.73;;;2.58;;
22812;SDS011;11573;51.334;3.244;2022-09-25T03:50:03;11.60;;;2.63;;
22812;SDS011;11573;51.334;3.244;2022-09-25T03:52:33;5.65;;;2.03;;
22812;SDS011;11573;51.334;3.244;2022-09-25T03:55:00;9.75;;;2.50;;
22812;SDS011;11573;51.334;3.244;2022-09-25T03:57:27;8.95;;;2.55;;
22812;SDS011;11573;51.334;3.244;2022-09-25T03:59:54;7.82;;;2.20;;
22812;SDS011;11573;51.334;3.244;2022-09-25T04:02:21;8.48;;;2.63;;
22812;SDS011;11573;51.334;3.244;2022-09-25T04:04:48;11.27;;;3.08;;
22812;SDS011;11573;51.334;3.244;2022-09-25T04:07:15;8.52;;;2.22;;
22812;SDS011;11573;51.334;3.244;2022-09-25T04:09:42;12.27;;;2.90;;
22812;SDS011;11573;51.334;3.244;2022-09-25T04:12:09;7.28;;;2.38;;
22812;SDS011;11573;51.334;3.244;2022-09-25T04:14:38;11.05;;;2.65;;
22812;SDS011;11573;51.334;3.244;2022-09-25T04:17:09;10.13;;;3.05;;
22812;SDS011;11573;51.334;3.244;2022-09-25T04:19:37;10.57;;;2.60;;
22812;SDS011;11573;51.334;3.244;2022-09-25T04:22:03;9.73;;;2.60;;
22812;SDS011;11573;51.334;3.244;2022-09-25T04:24:30;5.75;;;2.30;;
22812;SDS011;11573;51.334;3.244;2022-09-25T04:27:16;12.82;;;2.72;;
22812;SDS011;11573;51.334;3.244;2022-09-25T04:29:46;7.18;;;2.85;;
22812;SDS011;11573;51.334;3.244;2022-09-25T04:32:14;8.50;;;2.70;;
22812;SDS011;11573;51.334;3.244;2022-09-25T04:35:00;8.98;;;2.67;;
22812;SDS011;11573;51.334;3.244;2022-09-25T04:37:27;10.43;;;2.75;;
22812;SDS011;11573;51.334;3.244;2022-09-25T04:42:44;8.27;;;2.50;;
22812;SDS011;11573;51.334;3.244;2022-09-25T04:45:11;5.13;;;2.67;;
22812;SDS011;11573;51.334;3.244;2022-09-25T04:47:38;9.93;;;3.05;;
22812;SDS011;11573;51.334;3.244;2022-09-25T04:50:05;7.53;;;2.67;;
22812;SDS011;11573;51.334;3.244;2022-09-25T04:52:32;6.50;;;2.20;;
22812;SDS011;11573;51.334;3.244;2022-09-25T04:54:59;10.57;;;2.53;;
22812;SDS011;11573;51.334;3.244;2022-09-25T04:57:26;3.83;;;2.58;;
22812;SDS011;11573;51.334;3.244;2022-09-25T05:00:13;8.00;;;3.08;;
22812;SDS011;11573;51.334;3.244;2022-09-25T05:02:44;8.80;;;2.70;;
22812;SDS011;11573;51.334;3.244;2022-09-25T05:05:12;8.35;;;2.30;;
22812;SDS011;11573;51.334;3.244;2022-09-25T05:07:39;6.35;;;2.30;;
22812;SDS011;11573;51.334;3.244;2022-09-25T05:10:06;8.90;;;2.58;;
22812;SDS011;11573;51.334;3.244;2022-09-25T05:12:34;6.85;;;2.50;;
22812;SDS011;11573;51.334;3.244;2022-09-25T05:15:02;10.43;;;2.55;;
22812;SDS011;11573;51.334;3.244;2022-09-25T05:17:29;2.75;;;1.95;;
22812;SDS011;11573;51.334;3.244;2022-09-25T05:19:57;4.68;;;2.47;;
22812;SDS011;11573;51.334;3.244;2022-09-25T05:22:24;6.65;;;2.47;;
22812;SDS011;11573;51.334;3.244;2022-09-25T05:24:51;6.40;;;2.47;;
22812;SDS011;11573;51.334;3.244;2022-09-25T05:27:24;9.13;;;3.05;;
22812;SDS011;11573;51.334;3.244;2022-09-25T05:29:51;8.75;;;2.70;;
22812;SDS011;11573;51.334;3.244;2022-09-25T05:32:18;5.53;;;2.30;;
22812;SDS011;11573;51.334;3.244;2022-09-25T05:34:44;6.63;;;2.80;;
22812;SDS011;11573;51.334;3.244;2022-09-25T05:37:11;10.40;;;3.50;;
22812;SDS011;11573;51.334;3.244;2022-09-25T05:39:38;5.93;;;2.83;;
22812;SDS011;11573;51.334;3.244;2022-09-25T05:42:05;7.07;;;2.92;;
22812;SDS011;11573;51.334;3.244;2022-09-25T05:44:32;6.18;;;3.20;;
22812;SDS011;11573;51.334;3.244;2022-09-25T05:46:59;5.55;;;2.80;;
22812;SDS011;11573;51.334;3.244;2022-09-25T05:49:26;6.68;;;2.97;;
22812;SDS011;11573;51.334;3.244;2022-09-25T05:51:54;9.23;;;3.10;;
22812;SDS011;11573;51.334;3.244;2022-09-25T05:54:21;8.50;;;3.05;;
22812;SDS011;11573;51.334;3.244;2022-09-25T05:56:48;4.70;;;2.92;;
22812;SDS011;11573;51.334;3.244;2022-09-25T05:59:15;8.73;;;3.20;;
22812;SDS011;11573;51.334;3.244;2022-09-25T06:01:42;7.63;;;3.53;;
22812;SDS011;11573;51.334;3.244;2022-09-25T06:04:09;6.85;;;3.40;;
22812;SDS011;11573;51.334;3.244;2022-09-25T06:06:36;10.13;;;3.50;;
22812;SDS011;11573;51.334;3.244;2022-09-25T06:09:02;8.80;;;3.90;;
22812;SDS011;11573;51.334;3.244;2022-09-25T06:11:29;11.57;;;5.53;;
22812;SDS011;11573;51.334;3.244;2022-09-25T06:13:57;13.23;;;5.50;;
22812;SDS011;11573;51.334;3.244;2022-09-25T06:16:24;10.60;;;5.28;;
22812;SDS011;11573;51.334;3.244;2022-09-25T06:18:51;12.57;;;5.97;;
22812;SDS011;11573;51.334;3.244;2022-09-25T06:21:18;10.30;;;5.47;;
22812;SDS011;11573;51.334;3.244;2022-09-25T06:23:45;18.00;;;6.63;;
22812;SDS011;11573;51.334;3.244;2022-09-25T06:26:13;14.13;;;5.90;;
22812;SDS011;11573;51.334;3.244;2022-09-25T06:28:40;8.10;;;5.15;;
22812;SDS011;11573;51.334;3.244;2022-09-25T06:31:07;9.10;;;5.22;;
22812;SDS011;11573;51.334;3.244;2022-09-25T06:33:34;11.35;;;6.07;;
22812;SDS011;11573;51.334;3.244;2022-09-25T06:36:03;11.05;;;6.07;;
22812;SDS011;11573;51.334;3.244;2022-09-25T06:38:30;12.55;;;5.70;;
22812;SDS011;11573;51.334;3.244;2022-09-25T06:41:00;14.23;;;5.72;;
22812;SDS011;11573;51.334;3.244;2022-09-25T06:43:28;12.82;;;5.82;;
22812;SDS011;11573;51.334;3.244;2022-09-25T06:45:57;13.00;;;5.28;;
22812;SDS011;11573;51.334;3.244;2022-09-25T06:48:27;10.00;;;4.45;;
22812;SDS011;11573;51.334;3.244;2022-09-25T06:50:56;10.90;;;4.80;;
22812;SDS011;11573;51.334;3.244;2022-09-25T06:53:26;13.45;;;4.65;;
22812;SDS011;11573;51.334;3.244;2022-09-25T06:55:55;16.00;;;5.93;;
22812;SDS011;11573;51.334;3.244;2022-09-25T06:58:24;12.00;;;5.07;;
22812;SDS011;11573;51.334;3.244;2022-09-25T07:00:53;17.95;;;4.30;;
22812;SDS011;11573;51.334;3.244;2022-09-25T07:03:20;14.02;;;3.30;;
22812;SDS011;11573;51.334;3.244;2022-09-25T07:06:07;19.13;;;2.58;;
22812;SDS011;11573;51.334;3.244;2022-09-25T07:08:36;13.10;;;2.70;;
22812;SDS011;11573;51.334;3.244;2022-09-25T07:11:03;7.20;;;2.28;;
22812;SDS011;11573;51.334;3.244;2022-09-25T07:13:31;10.35;;;2.55;;
22812;SDS011;11573;51.334;3.244;2022-09-25T07:16:04;14.40;;;2.70;;
22812;SDS011;11573;51.334;3.244;2022-09-25T07:18:33;15.55;;;2.60;;
22812;SDS011;11573;51.334;3.244;2022-09-25T07:21:01;14.18;;;4.20;;
22812;SDS011;11573;51.334;3.244;2022-09-25T07:23:32;45.20;;;15.68;;
22812;SDS011;11573;51.334;3.244;2022-09-25T07:26:43;9.10;;;2.83;;
22812;SDS011;11573;51.334;3.244;2022-09-25T07:28:53;10.55;;;2.15;;
22812;SDS011;11573;51.334;3.244;2022-09-25T07:31:21;6.82;;;1.95;;
22812;SDS011;11573;51.334;3.244;2022-09-25T07:33:51;9.02;;;2.28;;
22812;SDS011;11573;51.334;3.244;2022-09-25T07:36:18;8.32;;;2.38;;
22812;SDS011;11573;51.334;3.244;2022-09-25T07:38:49;10.68;;;2.03;;
22812;SDS011;11573;51.334;3.244;2022-09-25T07:41:17;10.75;;;1.85;;
22812;SDS011;11573;51.334;3.244;2022-09-25T07:43:45;7.95;;;1.92;;
22812;SDS011;11573;51.334;3.244;2022-09-25T07:46:12;7.82;;;1.90;;
22812;SDS011;11573;51.334;3.244;2022-09-25T07:48:39;7.93;;;1.70;;
22812;SDS011;11573;51.334;3.244;2022-09-25T07:51:07;6.72;;;1.75;;
22812;SDS011;11573;51.334;3.244;2022-09-25T07:53:36;7.35;;;1.88;;
22812;SDS011;11573;51.334;3.244;2022-09-25T07:56:04;6.13;;;1.95;;
22812;SDS011;11573;51.334;3.244;2022-09-25T07:58:32;3.38;;;1.63;;
22812;SDS011;11573;51.334;3.244;2022-09-25T08:01:04;6.72;;;1.50;;
22812;SDS011;11573;51.334;3.244;2022-09-25T08:03:33;5.10;;;1.38;;
22812;SDS011;11573;51.334;3.244;2022-09-25T08:06:02;5.43;;;1.85;;
22812;SDS011;11573;51.334;3.244;2022-09-25T08:08:38;4.88;;;1.80;;
22812;SDS011;11573;51.334;3.244;2022-09-25T08:11:08;5.72;;;1.90;;
22812;SDS011;11573;51.334;3.244;2022-09-25T08:13:40;5.63;;;1.70;;
22812;SDS011;11573;51.334;3.244;2022-09-25T08:16:11;5.75;;;1.65;;
22812;SDS011;11573;51.334;3.244;2022-09-25T08:18:43;9.07;;;2.67;;
22812;SDS011;11573;51.334;3.244;2022-09-25T08:21:12;9.68;;;2.58;;
22812;SDS011;11573;51.334;3.244;2022-09-25T08:23:41;6.60;;;2.70;;
22812;SDS011;11573;51.334;3.244;2022-09-25T08:26:13;7.05;;;3.30;;
22812;SDS011;11573;51.334;3.244;2022-09-25T08:28:41;4.55;;;2.53;;
22812;SDS011;11573;51.334;3.244;2022-09-25T08:31:08;11.35;;;3.58;;
22812;SDS011;11573;51.334;3.244;2022-09-25T08:33:35;8.18;;;3.83;;
22812;SDS011;11573;51.334;3.244;2022-09-25T08:36:03;6.57;;;3.47;;
22812;SDS011;11573;51.334;3.244;2022-09-25T08:38:30;5.65;;;3.47;;
22812;SDS011;11573;51.334;3.244;2022-09-25T08:41:06;4.88;;;3.50;;
22812;SDS011;11573;51.334;3.244;2022-09-25T08:49:27;8.68;;;4.07;;
22812;SDS011;11573;51.334;3.244;2022-09-25T08:51:59;10.60;;;4.40;;
22812;SDS011;11573;51.334;3.244;2022-09-25T08:54:34;8.97;;;4.40;;
22812;SDS011;11573;51.334;3.244;2022-09-25T08:57:13;7.53;;;4.40;;
22812;SDS011;11573;51.334;3.244;2022-09-25T08:59:48;10.45;;;4.68;;
22812;SDS011;11573;51.334;3.244;2022-09-25T09:03:01;12.63;;;4.53;;
22812;SDS011;11573;51.334;3.244;2022-09-25T09:08:11;8.43;;;4.10;;
22812;SDS011;11573;51.334;3.244;2022-09-25T09:10:44;10.52;;;4.13;;
22812;SDS011;11573;51.334;3.244;2022-09-25T09:13:19;8.23;;;3.13;;
22812;SDS011;11573;51.334;3.244;2022-09-25T09:16:01;6.03;;;2.97;;
22812;SDS011;11573;51.334;3.244;2022-09-25T09:18:51;6.22;;;2.38;;
22812;SDS011;11573;51.334;3.244;2022-09-25T09:21:33;8.80;;;2.42;;
22812;SDS011;11573;51.334;3.244;2022-09-25T09:32:50;3.58;;;1.65;;
22812;SDS011;11573;51.334;3.244;2022-09-25T09:38:06;5.80;;;1.65;;
22812;SDS011;11573;51.334;3.244;2022-09-25T09:51:24;5.13;;;1.55;;
22812;SDS011;11573;51.334;3.244;2022-09-25T09:53:59;4.57;;;1.10;;
22812;SDS011;11573;51.334;3.244;2022-09-25T09:56:32;4.35;;;1.30;;
22812;SDS011;11573;51.334;3.244;2022-09-25T10:01:53;7.07;;;1.98;;
22812;SDS011;11573;51.334;3.244;2022-09-25T10:04:35;3.70;;;1.38;;
22812;SDS011;11573;51.334;3.244;2022-09-25T10:07:07;6.93;;;1.50;;
22812;SDS011;11573;51.334;3.244;2022-09-25T10:09:39;7.75;;;1.65;;
22812;SDS011;11573;51.334;3.244;2022-09-25T10:12:10;15.30;;;2.35;;
22812;SDS011;11573;51.334;3.244;2022-09-25T10:14:49;13.15;;;1.50;;
22812;SDS011;11573;51.334;3.244;2022-09-25T10:17:19;13.32;;;2.10;;
22812;SDS011;11573;51.334;3.244;2022-09-25T10:19:53;10.75;;;1.77;;
22812;SDS011;11573;51.334;3.244;2022-09-25T10:22:44;7.38;;;1.27;;
22812;SDS011;11573;51.334;3.244;2022-09-25T10:25:11;6.90;;;1.35;;
22812;SDS011;11573;51.334;3.244;2022-09-25T10:35:24;1.55;;;0.70;;
22812;SDS011;11573;51.334;3.244;2022-09-25T10:37:56;1.63;;;0.68;;
22812;SDS011;11573;51.334;3.244;2022-09-25T10:40:29;1.08;;;0.60;;
22812;SDS011;11573;51.334;3.244;2022-09-25T10:43:19;2.45;;;1.20;;
22812;SDS011;11573;51.334;3.244;2022-09-25T10:46:11;3.38;;;1.20;;
22812;SDS011;11573;51.334;3.244;2022-09-25T10:48:41;4.38;;;1.00;;
22812;SDS011;11573;51.334;3.244;2022-09-25T10:51:27;8.60;;;1.40;;
22812;SDS011;11573;51.334;3.244;2022-09-25T10:54:10;4.18;;;1.13;;
22812;SDS011;11573;51.334;3.244;2022-09-25T10:56:38;3.42;;;1.10;;
22812;SDS011;11573;51.334;3.244;2022-09-25T10:59:12;3.38;;;1.05;;
22812;SDS011;11573;51.334;3.244;2022-09-25T11:01:44;2.60;;;1.08;;
22812;SDS011;11573;51.334;3.244;2022-09-25T11:04:16;2.40;;;0.80;;
22812;SDS011;11573;51.334;3.244;2022-09-25T11:06:48;2.75;;;0.70;;
22812;SDS011;11573;51.334;3.244;2022-09-25T11:09:19;3.17;;;1.00;;
22812;SDS011;11573;51.334;3.244;2022-09-25T11:11:48;2.33;;;1.05;;
22812;SDS011;11573;51.334;3.244;2022-09-25T11:16:59;1.75;;;0.82;;
22812;SDS011;11573;51.334;3.244;2022-09-25T11:19:31;3.40;;;1.20;;
22812;SDS011;11573;51.334;3.244;2022-09-25T11:22:34;4.30;;;1.35;;
22812;SDS011;11573;51.334;3.244;2022-09-25T11:25:13;4.57;;;1.48;;
22812;SDS011;11573;51.334;3.244;2022-09-25T11:28:01;7.30;;;1.58;;
22812;SDS011;11573;51.334;3.244;2022-09-25T11:30:55;5.43;;;1.35;;
22812;SDS011;11573;51.334;3.244;2022-09-25T11:33:39;7.47;;;1.35;;
22812;SDS011;11573;51.334;3.244;2022-09-25T11:42:11;4.25;;;1.35;;
22812;SDS011;11573;51.334;3.244;2022-09-25T11:45:01;2.50;;;1.05;;
22812;SDS011;11573;51.334;3.244;2022-09-25T11:47:46;5.85;;;1.05;;
22812;SDS011;11573;51.334;3.244;2022-09-25T11:50:20;7.20;;;1.38;;
22812;SDS011;11573;51.334;3.244;2022-09-25T11:53:05;4.38;;;1.30;;
22812;SDS011;11573;51.334;3.244;2022-09-25T12:09:46;6.25;;;1.30;;
22812;SDS011;11573;51.334;3.244;2022-09-25T12:15:15;6.07;;;1.35;;
22812;SDS011;11573;51.334;3.244;2022-09-25T12:23:30;4.05;;;0.88;;
22812;SDS011;11573;51.334;3.244;2022-09-25T12:29:12;5.22;;;1.33;;
22812;SDS011;11573;51.334;3.244;2022-09-25T12:31:24;6.22;;;1.40;;
22812;SDS011;11573;51.334;3.244;2022-09-25T12:37:10;6.53;;;1.50;;
22812;SDS011;11573;51.334;3.244;2022-09-25T12:40:00;3.00;;;1.42;;
22812;SDS011;11573;51.334;3.244;2022-09-25T12:45:31;5.38;;;1.10;;
22812;SDS011;11573;51.334;3.244;2022-09-25T12:53:48;3.15;;;1.00;;
22812;SDS011;11573;51.334;3.244;2022-09-25T12:56:37;1.35;;;0.88;;
22812;SDS011;11573;51.334;3.244;2022-09-25T12:59:10;3.07;;;0.77;;
22812;SDS011;11573;51.334;3.244;2022-09-25T13:04:52;5.78;;;1.10;;
22812;SDS011;11573;51.334;3.244;2022-09-25T13:08:04;2.13;;;0.75;;
22812;SDS011;11573;51.334;3.244;2022-09-25T13:13:28;3.35;;;1.05;;
22812;SDS011;11573;51.334;3.244;2022-09-25T13:16:01;1.55;;;0.98;;
22812;SDS011;11573;51.334;3.244;2022-09-25T13:18:29;3.38;;;1.02;;
22812;SDS011;11573;51.334;3.244;2022-09-25T13:21:21;4.30;;;0.77;;
22812;SDS011;11573;51.334;3.244;2022-09-25T13:23:49;3.85;;;0.85;;
22812;SDS011;11573;51.334;3.244;2022-09-25T13:26:20;2.92;;;0.52;;
22812;SDS011;11573;51.334;3.244;2022-09-25T13:31:30;2.15;;;0.90;;
22812;SDS011;11573;51.334;3.244;2022-09-25T13:36:30;4.57;;;0.82;;
22812;SDS011;11573;51.334;3.244;2022-09-25T13:39:03;2.72;;;0.90;;
22812;SDS011;11573;51.334;3.244;2022-09-25T13:42:05;3.97;;;1.05;;
22812;SDS011;11573;51.334;3.244;2022-09-25T14:00:25;3.47;;;0.80;;
22812;SDS011;11573;51.334;3.244;2022-09-25T14:02:58;2.33;;;0.70;;
22812;SDS011;11573;51.334;3.244;2022-09-25T14:05:29;4.53;;;1.02;;
22812;SDS011;11573;51.334;3.244;2022-09-25T14:08:06;1.05;;;0.77;;
22812;SDS011;11573;51.334;3.244;2022-09-25T14:10:34;3.17;;;1.10;;
22812;SDS011;11573;51.334;3.244;2022-09-25T14:13:01;4.93;;;1.15;;
22812;SDS011;11573;51.334;3.244;2022-09-25T14:15:33;3.22;;;0.90;;
22812;SDS011;11573;51.334;3.244;2022-09-25T14:18:18;4.10;;;1.10;;
22812;SDS011;11573;51.334;3.244;2022-09-25T14:20:50;3.37;;;1.03;;
22812;SDS011;11573;51.334;3.244;2022-09-25T14:23:23;4.95;;;1.38;;
22812;SDS011;11573;51.334;3.244;2022-09-25T14:25:56;3.20;;;0.90;;
22812;SDS011;11573;51.334;3.244;2022-09-25T14:28:25;5.88;;;1.23;;
22812;SDS011;11573;51.334;3.244;2022-09-25T14:36:29;2.13;;;0.77;;
22812;SDS011;11573;51.334;3.244;2022-09-25T14:39:32;9.75;;;1.75;;
22812;SDS011;11573;51.334;3.244;2022-09-25T14:45:13;7.63;;;1.30;;
22812;SDS011;11573;51.334;3.244;2022-09-25T14:48:04;3.58;;;1.00;;
22812;SDS011;11573;51.334;3.244;2022-09-25T14:50:38;3.03;;;0.75;;
22812;SDS011;11573;51.334;3.244;2022-09-25T14:53:38;4.15;;;1.35;;
22812;SDS011;11573;51.334;3.244;2022-09-25T14:56:05;3.85;;;1.17;;
22812;SDS011;11573;51.334;3.244;2022-09-25T14:58:38;2.50;;;0.73;;
22812;SDS011;11573;51.334;3.244;2022-09-25T15:01:31;7.57;;;1.17;;
22812;SDS011;11573;51.334;3.244;2022-09-25T15:03:59;2.13;;;0.95;;
22812;SDS011;11573;51.334;3.244;2022-09-25T15:06:29;2.80;;;0.82;;
22812;SDS011;11573;51.334;3.244;2022-09-25T15:09:00;4.97;;;0.98;;
22812;SDS011;11573;51.334;3.244;2022-09-25T15:11:52;3.83;;;0.90;;
22812;SDS011;11573;51.334;3.244;2022-09-25T15:14:19;4.03;;;1.40;;
22812;SDS011;11573;51.334;3.244;2022-09-25T15:16:46;1.95;;;0.82;;
22812;SDS011;11573;51.334;3.244;2022-09-25T15:19:36;1.77;;;0.63;;
22812;SDS011;11573;51.334;3.244;2022-09-25T15:22:09;1.80;;;0.75;;
22812;SDS011;11573;51.334;3.244;2022-09-25T15:24:44;1.38;;;0.90;;
22812;SDS011;11573;51.334;3.244;2022-09-25T15:27:14;3.38;;;0.88;;
22812;SDS011;11573;51.334;3.244;2022-09-25T15:29:44;1.48;;;0.77;;
22812;SDS011;11573;51.334;3.244;2022-09-25T15:32:20;3.90;;;1.13;;
22812;SDS011;11573;51.334;3.244;2022-09-25T15:35:13;4.53;;;1.40;;
22812;SDS011;11573;51.334;3.244;2022-09-25T15:37:41;4.00;;;1.23;;
22812;SDS011;11573;51.334;3.244;2022-09-25T15:40:13;5.68;;;1.10;;
22812;SDS011;11573;51.334;3.244;2022-09-25T15:42:48;4.53;;;1.30;;
22812;SDS011;11573;51.334;3.244;2022-09-25T15:51:02;4.55;;;1.20;;
22812;SDS011;11573;51.334;3.244;2022-09-25T15:53:39;3.63;;;1.02;;
22812;SDS011;11573;51.334;3.244;2022-09-25T15:56:25;4.53;;;1.20;;
22812;SDS011;11573;51.334;3.244;2022-09-25T15:58:59;7.72;;;1.38;;
22812;SDS011;11573;51.334;3.244;2022-09-25T16:01:29;3.20;;;1.25;;
22812;SDS011;11573;51.334;3.244;2022-09-25T16:04:19;6.15;;;1.73;;
22812;SDS011;11573;51.334;3.244;2022-09-25T16:12:30;7.88;;;1.52;;
22812;SDS011;11573;51.334;3.244;2022-09-25T16:14:58;7.57;;;2.20;;
22812;SDS011;11573;51.334;3.244;2022-09-25T16:17:49;5.30;;;2.38;;
22812;SDS011;11573;51.334;3.244;2022-09-25T16:22:55;4.65;;;1.40;;
22812;SDS011;11573;51.334;3.244;2022-09-25T16:25:26;4.45;;;1.48;;
22812;SDS011;11573;51.334;3.244;2022-09-25T16:28:03;7.68;;;3.25;;
22812;SDS011;11573;51.334;3.244;2022-09-25T16:30:33;4.60;;;1.30;;
22812;SDS011;11573;51.334;3.244;2022-09-25T16:33:03;8.13;;;1.58;;
22812;SDS011;11573;51.334;3.244;2022-09-25T16:35:43;3.45;;;1.30;;
22812;SDS011;11573;51.334;3.244;2022-09-25T16:38:34;4.65;;;1.10;;
22812;SDS011;11573;51.334;3.244;2022-09-25T16:41:04;3.40;;;1.00;;
22812;SDS011;11573;51.334;3.244;2022-09-25T16:43:35;4.25;;;1.02;;
22812;SDS011;11573;51.334;3.244;2022-09-25T16:46:11;3.45;;;1.00;;
22812;SDS011;11573;51.334;3.244;2022-09-25T16:48:44;3.78;;;1.05;;
22812;SDS011;11573;51.334;3.244;2022-09-25T16:51:23;5.40;;;1.17;;
22812;SDS011;11573;51.334;3.244;2022-09-25T16:53:54;1.92;;;0.70;;
22812;SDS011;11573;51.334;3.244;2022-09-25T16:56:24;5.45;;;0.93;;
22812;SDS011;11573;51.334;3.244;2022-09-25T16:58:52;4.22;;;0.80;;
22812;SDS011;11573;51.334;3.244;2022-09-25T17:01:19;3.97;;;1.05;;
22812;SDS011;11573;51.334;3.244;2022-09-25T17:03:49;4.25;;;1.25;;
22812;SDS011;11573;51.334;3.244;2022-09-25T17:06:20;3.85;;;1.23;;
22812;SDS011;11573;51.334;3.244;2022-09-25T17:08:49;3.25;;;1.10;;
22812;SDS011;11573;51.334;3.244;2022-09-25T17:11:16;7.07;;;1.60;;
22812;SDS011;11573;51.334;3.244;2022-09-25T17:13:45;3.15;;;1.00;;
22812;SDS011;11573;51.334;3.244;2022-09-25T17:16:13;8.07;;;1.35;;
22812;SDS011;11573;51.334;3.244;2022-09-25T17:18:40;3.33;;;0.95;;
22812;SDS011;11573;51.334;3.244;2022-09-25T17:21:11;1.50;;;0.93;;
22812;SDS011;11573;51.334;3.244;2022-09-25T17:23:41;2.95;;;1.02;;
22812;SDS011;11573;51.334;3.244;2022-09-25T17:26:22;4.68;;;1.00;;
22812;SDS011;11573;51.334;3.244;2022-09-25T17:28:49;2.80;;;0.80;;
22812;SDS011;11573;51.334;3.244;2022-09-25T17:31:17;1.98;;;1.00;;
22812;SDS011;11573;51.334;3.244;2022-09-25T17:33:46;3.72;;;1.00;;
22812;SDS011;11573;51.334;3.244;2022-09-25T17:36:17;4.38;;;1.25;;
22812;SDS011;11573;51.334;3.244;2022-09-25T17:38:44;1.77;;;1.05;;
22812;SDS011;11573;51.334;3.244;2022-09-25T17:41:16;1.60;;;1.35;;
22812;SDS011;11573;51.334;3.244;2022-09-25T17:43:46;2.85;;;1.33;;
22812;SDS011;11573;51.334;3.244;2022-09-25T17:46:14;5.53;;;1.50;;
22812;SDS011;11573;51.334;3.244;2022-09-25T17:48:44;5.40;;;1.42;;
22812;SDS011;11573;51.334;3.244;2022-09-25T17:51:20;4.25;;;1.33;;
22812;SDS011;11573;51.334;3.244;2022-09-25T17:53:48;3.42;;;1.20;;
22812;SDS011;11573;51.334;3.244;2022-09-25T17:56:18;5.70;;;1.67;;
22812;SDS011;11573;51.334;3.244;2022-09-25T17:58:45;3.53;;;1.50;;
22812;SDS011;11573;51.334;3.244;2022-09-25T18:01:22;5.20;;;1.38;;
22812;SDS011;11573;51.334;3.244;2022-09-25T18:03:52;6.20;;;1.77;;
22812;SDS011;11573;51.334;3.244;2022-09-25T18:06:21;6.15;;;2.08;;
22812;SDS011;11573;51.334;3.244;2022-09-25T18:08:49;5.43;;;1.80;;
22812;SDS011;11573;51.334;3.244;2022-09-25T18:11:16;5.47;;;1.60;;
22812;SDS011;11573;51.334;3.244;2022-09-25T18:13:44;4.38;;;1.40;;
22812;SDS011;11573;51.334;3.244;2022-09-25T18:16:16;4.47;;;1.20;;
22812;SDS011;11573;51.334;3.244;2022-09-25T18:18:45;5.43;;;1.35;;